createdAt,value
2019-04-21T00:03:23.543Z,89.50
2019-04-21T00:13:23.766Z,91.40
2019-04-21T00:18:23.383Z,92.30
2019-04-21T00:23:38.428Z,93.40
2019-04-21T00:28:42.365Z,94.60
2019-04-21T00:33:19.200Z,95.60
2019-04-21T00:38:25.185Z,96.30
2019-04-21T00:43:21.194Z,97.30
2019-04-21T00:48:23.291Z,98.90
2019-04-21T00:53:23.601Z,99.90
2019-04-21T00:58:17.735Z,99.90
2019-04-21T01:03:16.703Z,99.60
2019-04-21T01:08:10.136Z,99.90
2019-04-21T01:13:11.341Z,99.90
2019-04-21T01:17:56.031Z,99.90
2019-04-21T01:22:36.161Z,99.90
2019-04-21T01:27:52.107Z,99.90
2019-04-21T01:32:51.505Z,99.90
2019-04-21T01:37:52.442Z,99.90
2019-04-21T01:42:39.341Z,99.90
2019-04-21T01:47:31.507Z,99.90
2019-04-21T01:57:33.384Z,99.90
2019-04-21T02:02:29.383Z,99.90
2019-04-21T02:07:30.452Z,99.90
2019-04-21T02:12:40.630Z,99.90
2019-04-21T02:17:17.358Z,99.90
2019-04-21T02:22:17.730Z,99.90
2019-04-21T02:27:14.995Z,99.90
2019-04-21T02:32:14.542Z,99.90
2019-04-21T02:37:28.430Z,99.90
2019-04-21T02:46:58.411Z,99.90
2019-04-21T02:52:11.657Z,99.90
2019-04-21T02:57:01.296Z,99.90
2019-04-21T03:02:11.078Z,99.90
2019-04-21T03:07:11.255Z,99.90
2019-04-21T03:12:04.878Z,99.90
2019-04-21T03:16:46.949Z,99.90
2019-04-21T03:21:57.508Z,99.90
2019-04-21T03:41:37.990Z,99.90
2019-04-21T03:46:42.248Z,99.90
2019-04-21T03:51:29.887Z,99.90
2019-04-21T03:56:46.948Z,99.90
2019-04-21T04:01:44.397Z,99.90
2019-04-21T04:26:16.921Z,99.90
2019-04-21T04:31:20.057Z,99.90
2019-04-21T04:36:15.578Z,99.90
2019-04-21T04:41:14.652Z,99.90
2019-04-21T04:45:58.897Z,99.90
2019-04-21T04:51:02.026Z,99.90
2019-04-21T04:55:58.875Z,99.90
2019-04-21T05:01:08.653Z,99.90
2019-04-21T05:11:32.559Z,99.90
2019-04-21T05:16:26.336Z,99.90
2019-04-21T05:21:28.036Z,99.40
2019-04-21T05:25:54.410Z,99.80
2019-04-21T05:31:19.510Z,99.90
2019-04-21T05:36:22.271Z,99.90
2019-04-21T05:41:10.068Z,99.90
2019-04-21T05:46:14.034Z,99.90
2019-04-21T05:51:03.668Z,99.90
2019-04-21T05:56:14.206Z,99.90
2019-04-21T06:01:16.617Z,99.90
2019-04-21T06:06:16.433Z,99.90
2019-04-21T06:11:05.401Z,99.90
2019-04-21T06:15:56.984Z,99.90
2019-04-21T06:26:19.874Z,99.90
2019-04-21T06:31:00.074Z,99.90
2019-04-21T06:36:07.801Z,99.90
2019-04-21T06:40:42.254Z,99.90
2019-04-21T06:45:39.983Z,99.90
2019-04-21T06:50:40.065Z,99.90
2019-04-21T06:55:35.115Z,99.90
2019-04-21T07:00:31.575Z,99.90
2019-04-21T07:05:34.601Z,99.90
2019-04-21T07:15:30.816Z,98.50
2019-04-21T07:20:21.501Z,99.10
2019-04-21T07:25:22.602Z,99.70
2019-04-21T07:30:18.867Z,99.80
2019-04-21T07:35:17.214Z,98.80
2019-04-21T07:40:05.592Z,98.70
2019-04-21T07:44:57.686Z,98.60
2019-04-21T07:50:14.608Z,98.60
2019-04-21T08:00:16.624Z,97.60
2019-04-21T08:05:10.262Z,96.80
2019-04-21T08:09:57.216Z,96.40
2019-04-21T08:14:49.451Z,95.30
2019-04-21T08:19:49.930Z,94.50
2019-04-21T08:24:49.179Z,93.50
2019-04-21T08:29:47.588Z,93.10
2019-04-21T08:34:51.079Z,93.20
2019-04-21T08:39:42.058Z,93.80
2019-04-21T08:44:33.435Z,92.80
2019-04-21T08:49:26.553Z,92.90
2019-04-21T08:54:27.500Z,92.60
2019-04-21T09:04:29.080Z,92.20
2019-04-21T09:09:30.090Z,91.70
2019-04-21T09:14:25.396Z,91.80
2019-04-21T09:19:26.299Z,91.30
2019-04-21T09:24:22.030Z,90.20
2019-04-21T09:29:04.338Z,88.90
2019-04-21T09:33:57.288Z,88.80
2019-04-21T09:38:56.104Z,88.00
2019-04-21T09:43:50.586Z,86.20
2019-04-21T09:48:49.844Z,85.60
2019-04-21T09:53:41.390Z,83.50
2019-04-21T09:58:40.273Z,83.20
2019-04-21T10:03:38.276Z,83.60
2019-04-21T10:08:27.257Z,82.90
2019-04-21T10:13:22.991Z,82.10
2019-04-21T10:18:22.119Z,82.10
2019-04-21T10:23:17.739Z,80.40
2019-04-21T10:28:12.885Z,80.10
2019-04-21T10:33:08.343Z,79.10
2019-04-21T10:38:17.008Z,78.40
2019-04-21T10:43:00.487Z,78.90
2019-04-21T10:47:56.772Z,78.40
2019-04-21T10:52:58.967Z,78.00
2019-04-21T10:58:08.566Z,75.30
2019-04-21T11:03:12.944Z,74.90
2019-04-21T11:08:20.459Z,73.40
2019-04-21T11:13:05.167Z,71.60
2019-04-21T11:17:59.905Z,62.50
2019-04-21T11:22:55.589Z,66.80
2019-04-21T11:27:51.156Z,66.90
2019-04-21T11:32:47.655Z,66.60
2019-04-21T11:37:42.417Z,64.60
2019-04-21T11:42:39.730Z,64.30
2019-04-21T11:47:42.726Z,64.30
2019-04-21T11:52:37.338Z,63.60
2019-04-21T11:57:36.485Z,64.20
2019-04-21T12:02:28.307Z,65.00
2019-04-21T12:07:22.996Z,65.40
2019-04-21T12:12:17.570Z,66.10
2019-04-21T12:17:12.240Z,66.60
2019-04-21T12:22:16.294Z,66.40
2019-04-21T12:27:04.097Z,66.80
2019-04-21T12:32:13.330Z,64.60
2019-04-21T12:37:08.779Z,64.40
2019-04-21T12:42:04.744Z,62.90
2019-04-21T12:46:59.711Z,60.70
2019-04-21T12:51:55.465Z,57.30
2019-04-21T12:56:51.589Z,57.30
2019-04-21T13:01:46.430Z,57.20
2019-04-21T13:06:41.524Z,57.90
2019-04-21T13:11:37.237Z,59.10
2019-04-21T13:16:33.390Z,59.10
2019-04-21T13:21:28.325Z,59.90
2019-04-21T13:26:32.777Z,61.20
2019-04-21T13:31:20.246Z,62.80
2019-04-21T13:36:15.805Z,59.20
2019-04-21T13:41:28.608Z,59.30
2019-04-21T13:46:09.873Z,58.20
2019-04-21T13:51:05.022Z,57.60
2019-04-21T13:56:00.437Z,55.60
2019-04-21T14:00:56.094Z,55.80
2019-04-21T14:05:51.050Z,55.40
2019-04-21T14:10:47.214Z,54.70
2019-04-21T14:15:44.891Z,54.80
2019-04-21T14:20:39.547Z,54.20
2019-04-21T14:25:35.498Z,52.20
2019-04-21T14:30:30.719Z,53.80
2019-04-21T14:35:25.379Z,51.20
2019-04-21T14:40:24.343Z,51.50
2019-04-21T14:45:32.536Z,51.20
2019-04-21T14:50:32.474Z,50.00
2019-04-21T14:55:28.977Z,49.90
2019-04-21T15:00:27.198Z,49.30
2019-04-21T15:05:21.815Z,49.30
2019-04-21T15:10:20.808Z,47.90
2019-04-21T15:15:13.960Z,48.90
2019-04-21T15:20:13.403Z,47.70
2019-04-21T15:25:08.118Z,45.40
2019-04-21T15:30:03.042Z,45.10
2019-04-21T15:34:58.281Z,46.30
2019-04-21T15:39:53.144Z,46.90
2019-04-21T15:44:48.419Z,48.20
2019-04-21T15:49:53.890Z,49.40
2019-04-21T15:54:41.177Z,51.40
2019-04-21T15:59:40.253Z,52.20
2019-04-21T16:04:34.864Z,52.50
2019-04-21T16:09:31.206Z,52.90
2019-04-21T16:14:27.043Z,52.90
2019-04-21T16:19:23.041Z,53.90
2019-04-21T16:24:18.404Z,54.00
2019-04-21T16:29:13.280Z,54.40
2019-04-21T16:34:09.154Z,54.10
2019-04-21T16:39:07.218Z,54.40
2019-04-21T16:44:02.984Z,54.40
2019-04-21T16:48:57.883Z,54.80
2019-04-21T16:54:00.146Z,55.10
2019-04-21T16:58:59.149Z,55.50
2019-04-21T17:03:54.640Z,55.70
2019-04-21T17:08:50.607Z,55.30
2019-04-21T17:13:45.777Z,56.00
2019-04-21T17:18:56.657Z,56.30
2019-04-21T17:23:37.637Z,56.60
2019-04-21T17:28:32.477Z,57.30
2019-04-21T17:33:29.043Z,57.50
2019-04-21T17:38:23.930Z,57.40
2019-04-21T17:43:19.814Z,57.80
2019-04-21T17:48:16.455Z,58.20
2019-04-21T17:53:14.910Z,58.50
2019-04-21T17:58:21.648Z,58.60
2019-04-21T18:03:35.089Z,58.90
2019-04-21T18:08:22.960Z,59.30
2019-04-21T18:13:06.494Z,59.40
2019-04-21T18:17:56.641Z,60.50
2019-04-21T18:23:07.455Z,59.50
2019-04-21T18:28:02.944Z,59.70
2019-04-21T18:32:58.618Z,60.30
2019-04-21T18:38:04.567Z,59.70
2019-04-21T18:43:23.784Z,59.90
2019-04-21T18:48:05.101Z,59.80
2019-04-21T18:53:03.350Z,60.20
2019-04-21T18:57:47.930Z,60.20
2019-04-21T19:02:47.475Z,60.70
2019-04-21T19:07:59.841Z,61.10
2019-04-21T19:13:20.395Z,61.30
2019-04-21T19:18:16.944Z,62.00
2019-04-21T19:22:42.002Z,62.90
2019-04-21T19:27:36.862Z,63.60
2019-04-21T19:32:33.497Z,64.50
2019-04-21T19:37:20.139Z,65.20
2019-04-21T19:42:22.618Z,65.90
2019-04-21T19:47:27.837Z,66.90
2019-04-21T19:52:11.091Z,66.60
2019-04-21T19:57:01.096Z,65.80
2019-04-21T20:01:56.216Z,66.30
2019-04-21T20:07:01.829Z,69.40
2019-04-21T20:12:00.867Z,71.10
2019-04-21T20:16:56.651Z,73.20
2019-04-21T20:21:40.922Z,72.10
2019-04-21T20:26:41.576Z,69.60
2019-04-21T20:31:45.964Z,71.50
2019-04-21T20:36:47.648Z,70.70
2019-04-21T20:41:36.111Z,75.20
2019-04-21T20:46:40.288Z,76.00
2019-04-21T20:51:35.712Z,78.40
2019-04-21T20:56:26.896Z,75.30
2019-04-21T21:06:24.988Z,70.70
2019-04-21T21:11:15.508Z,72.50
2019-04-21T21:16:24.700Z,75.50
2019-04-21T21:21:11.397Z,73.60
2019-04-21T21:26:16.075Z,73.00
2019-04-21T21:31:07.480Z,74.60
2019-04-21T21:36:06.610Z,75.20
2019-04-21T21:40:53.022Z,74.90
2019-04-21T21:45:42.673Z,75.60
2019-04-21T21:50:45.700Z,76.90
2019-04-21T21:55:34.059Z,79.50
2019-04-21T22:00:30.315Z,78.70
2019-04-21T22:05:29.190Z,79.30
2019-04-21T22:10:23.108Z,82.50
2019-04-21T22:15:23.099Z,83.00
2019-04-21T22:20:34.396Z,82.70
2019-04-21T22:25:20.673Z,85.00
2019-04-21T22:30:12.865Z,86.00
2019-04-21T22:35:21.765Z,88.30
2019-04-21T22:40:20.577Z,89.10
2019-04-21T22:45:11.246Z,90.30
2019-04-21T22:50:10.606Z,90.80
2019-04-21T22:55:16.729Z,92.90
2019-04-21T23:00:11.818Z,92.40
2019-04-21T23:05:07.992Z,92.50
2019-04-21T23:10:03.634Z,94.60
2019-04-21T23:15:04.356Z,95.80
2019-04-21T23:20:17.285Z,97.50
2019-04-21T23:25:07.541Z,98.10
2019-04-21T23:30:17.617Z,99.10
2019-04-21T23:34:45.321Z,98.50
2019-04-21T23:39:41.457Z,99.40
2019-04-21T23:44:41.562Z,99.90
2019-04-21T23:49:44.262Z,99.90
2019-04-21T23:54:29.399Z,99.90
2019-04-21T23:59:24.803Z,99.90
